createdAt,value
2023-04-04T00:01:08.462Z,6.85
2023-04-04T00:03:37.114Z,7.10
2023-04-04T00:06:05.812Z,8.68
2023-04-04T00:08:34.132Z,6.43
2023-04-04T00:11:02.803Z,8.63
2023-04-04T00:13:32.421Z,8.63
2023-04-04T00:16:00.850Z,5.95
2023-04-04T00:18:29.138Z,7.70
2023-04-04T00:20:57.469Z,6.50
2023-04-04T00:23:26.157Z,6.60
2023-04-04T00:25:54.741Z,9.60
2023-04-04T00:28:23.669Z,7.75
2023-04-04T00:30:53.470Z,6.35
2023-04-04T00:33:21.875Z,5.47
2023-04-04T00:35:50.350Z,10.98
2023-04-04T00:38:18.653Z,6.13
2023-04-04T00:40:50.905Z,6.28
2023-04-04T00:43:20.288Z,7.18
2023-04-04T00:45:48.912Z,9.20
2023-04-04T00:48:18.848Z,6.50
2023-04-04T00:50:47.346Z,10.75
2023-04-04T00:53:15.607Z,8.13
2023-04-04T00:55:44.513Z,8.68
2023-04-04T00:58:13.107Z,6.75
2023-04-04T01:00:41.798Z,8.13
2023-04-04T01:03:12.933Z,9.00
2023-04-04T01:05:42.897Z,8.32
2023-04-04T01:08:11.800Z,6.18
2023-04-04T01:10:41.674Z,8.32
2023-04-04T01:13:10.797Z,8.10
2023-04-04T01:15:39.410Z,7.70
2023-04-04T01:18:08.818Z,9.75
2023-04-04T01:20:52.574Z,4.85
2023-04-04T01:23:22.832Z,10.38
2023-04-04T01:26:03.943Z,7.15
2023-04-04T01:28:32.446Z,6.68
2023-04-04T01:31:03.762Z,6.78
2023-04-04T01:33:38.188Z,6.28
2023-04-04T01:36:18.930Z,6.28
2023-04-04T01:38:57.262Z,7.15
2023-04-04T01:41:28.709Z,12.88
2023-04-04T01:43:57.693Z,7.95
2023-04-04T01:46:26.014Z,7.38
2023-04-04T01:48:54.352Z,6.63
2023-04-04T01:51:23.880Z,13.77
2023-04-04T01:53:52.682Z,4.18
2023-04-04T01:56:21.005Z,6.97
2023-04-04T01:58:50.924Z,10.27
2023-04-04T02:01:19.939Z,6.70
2023-04-04T02:03:48.598Z,9.18
2023-04-04T02:06:17.013Z,5.68
2023-04-04T02:08:45.318Z,7.03
2023-04-04T02:11:13.590Z,9.13
2023-04-04T02:13:44.448Z,6.78
2023-04-04T02:16:14.294Z,5.72
2023-04-04T02:18:42.895Z,7.90
2023-04-04T02:21:11.170Z,7.03
2023-04-04T02:23:39.789Z,6.50
2023-04-04T02:26:08.076Z,7.10
2023-04-04T02:28:36.426Z,7.75
2023-04-04T02:31:04.899Z,12.40
2023-04-04T02:33:34.602Z,10.25
2023-04-04T02:36:02.908Z,9.15
2023-04-04T02:38:31.189Z,8.95
2023-04-04T02:40:59.606Z,7.35
2023-04-04T02:43:27.920Z,8.25
2023-04-04T02:45:56.228Z,7.13
2023-04-04T02:48:25.835Z,7.00
2023-04-04T02:50:55.653Z,11.80
2023-04-04T02:53:23.896Z,9.02
2023-04-04T02:55:52.492Z,7.15
2023-04-04T02:58:20.753Z,11.50
2023-04-04T03:00:55.909Z,6.10
2023-04-04T03:03:24.533Z,8.70
2023-04-04T03:05:53.045Z,9.55
2023-04-04T03:08:22.765Z,9.25
2023-04-04T03:10:51.103Z,6.15
2023-04-04T03:13:19.446Z,9.85
2023-04-04T03:15:47.908Z,7.78
2023-04-04T03:18:16.508Z,7.00
2023-04-04T03:20:44.781Z,9.13
2023-04-04T03:23:13.068Z,5.57
2023-04-04T03:25:42.737Z,9.13
2023-04-04T03:28:11.391Z,8.18
2023-04-04T03:30:40.400Z,11.70
2023-04-04T03:33:09.928Z,9.85
2023-04-04T03:35:40.092Z,8.23
2023-04-04T03:38:09.423Z,8.20
2023-04-04T03:40:38.016Z,10.85
2023-04-04T03:43:10.070Z,7.28
2023-04-04T03:45:38.688Z,8.18
2023-04-04T03:48:07.391Z,12.20
2023-04-04T03:50:37.974Z,9.25
2023-04-04T03:53:06.531Z,10.98
2023-04-04T03:55:35.720Z,7.72
2023-04-04T03:58:04.089Z,8.52
2023-04-04T04:00:33.696Z,9.05
2023-04-04T04:03:02.206Z,9.40
2023-04-04T04:05:30.504Z,9.95
2023-04-04T04:07:58.735Z,8.10
2023-04-04T04:10:27.003Z,9.95
2023-04-04T04:12:55.398Z,12.32
2023-04-04T04:15:23.647Z,7.43
2023-04-04T04:17:53.290Z,6.72
2023-04-04T04:20:21.547Z,8.88
2023-04-04T04:22:51.009Z,8.02
2023-04-04T04:25:20.980Z,10.70
2023-04-04T04:27:49.523Z,10.00
2023-04-04T04:30:17.883Z,8.10
2023-04-04T04:32:46.244Z,8.90
2023-04-04T04:35:16.238Z,10.10
2023-04-04T04:37:44.886Z,9.35
2023-04-04T04:40:14.253Z,7.50
2023-04-04T04:42:46.498Z,8.52
2023-04-04T04:45:15.157Z,10.23
2023-04-04T04:47:43.595Z,8.13
2023-04-04T04:50:12.458Z,6.30
2023-04-04T04:52:42.199Z,13.23
2023-04-04T04:55:11.814Z,10.60
2023-04-04T04:57:40.415Z,9.45
2023-04-04T05:00:10.520Z,9.05
2023-04-04T05:02:38.897Z,7.78
2023-04-04T05:05:08.452Z,7.70
2023-04-04T05:07:37.490Z,10.68
2023-04-04T05:10:08.485Z,8.75
2023-04-04T05:12:37.129Z,8.15
2023-04-04T05:15:06.829Z,10.65
2023-04-04T05:17:37.209Z,10.43
2023-04-04T05:20:07.737Z,12.35
2023-04-04T05:22:36.034Z,11.50
2023-04-04T05:25:04.401Z,11.27
2023-04-04T05:27:34.025Z,9.07
2023-04-04T05:30:02.409Z,10.05
2023-04-04T05:32:30.852Z,8.65
2023-04-04T05:34:59.250Z,10.40
2023-04-04T05:37:27.777Z,11.20
2023-04-04T05:39:56.237Z,10.23
2023-04-04T05:42:24.556Z,7.38
2023-04-04T05:44:54.325Z,10.25
2023-04-04T05:47:22.775Z,8.95
2023-04-04T05:49:51.153Z,9.60
2023-04-04T05:52:19.472Z,9.75
2023-04-04T05:54:48.168Z,9.27
2023-04-04T05:57:16.545Z,8.82
2023-04-04T05:59:44.784Z,8.05
2023-04-04T06:02:14.406Z,12.48
2023-04-04T06:04:44.892Z,18.25
2023-04-04T06:07:13.172Z,9.70
2023-04-04T06:09:41.875Z,10.73
2023-04-04T06:12:10.580Z,8.48
2023-04-04T06:14:39.118Z,10.60
2023-04-04T06:17:08.210Z,11.18
2023-04-04T06:19:37.815Z,10.48
2023-04-04T06:22:06.098Z,10.15
2023-04-04T06:24:36.192Z,12.50
2023-04-04T06:27:06.659Z,10.15
2023-04-04T06:29:34.984Z,9.13
2023-04-04T06:32:03.503Z,14.55
2023-04-04T06:34:31.963Z,10.05
2023-04-04T06:37:01.811Z,11.32
2023-04-04T06:39:31.549Z,10.85
2023-04-04T06:41:59.885Z,11.32
2023-04-04T06:44:28.404Z,12.52
2023-04-04T06:46:57.144Z,12.38
2023-04-04T06:49:25.561Z,13.40
2023-04-04T06:51:54.224Z,14.57
2023-04-04T06:54:23.901Z,13.60
2023-04-04T06:56:52.905Z,10.20
2023-04-04T06:59:21.239Z,9.77
2023-04-04T07:01:49.806Z,10.52
2023-04-04T07:04:20.773Z,9.68
2023-04-04T07:06:49.037Z,13.05
2023-04-04T07:09:27.901Z,8.70
2023-04-04T07:11:58.630Z,10.48
2023-04-04T07:14:26.879Z,10.10
2023-04-04T07:16:55.385Z,13.35
2023-04-04T07:19:28.669Z,9.77
2023-04-04T07:21:57.541Z,11.25
2023-04-04T07:24:25.858Z,7.38
2023-04-04T07:26:54.181Z,10.90
2023-04-04T07:29:24.035Z,9.80
2023-04-04T07:31:52.627Z,8.75
2023-04-04T07:34:21.273Z,7.43
2023-04-04T07:36:49.764Z,9.50
2023-04-04T07:39:18.161Z,9.27
2023-04-04T07:41:46.743Z,12.20
2023-04-04T07:44:15.853Z,8.65
2023-04-04T07:46:49.888Z,9.25
2023-04-04T07:49:24.160Z,11.55
2023-04-04T07:51:52.746Z,11.73
2023-04-04T07:54:23.303Z,12.38
2023-04-04T07:56:51.932Z,8.18
2023-04-04T07:59:20.404Z,8.85
2023-04-04T08:01:50.196Z,9.43
2023-04-04T08:04:18.914Z,8.90
2023-04-04T08:06:47.597Z,10.25
2023-04-04T08:09:16.442Z,10.43
2023-04-04T08:11:46.048Z,10.02
2023-04-04T08:14:14.587Z,12.55
2023-04-04T08:16:43.332Z,7.80
2023-04-04T08:19:13.324Z,11.98
2023-04-04T08:21:42.090Z,9.63
2023-04-04T08:24:10.889Z,7.60
2023-04-04T08:26:39.294Z,9.90
2023-04-04T08:29:07.809Z,10.10
2023-04-04T08:31:36.365Z,8.25
2023-04-04T08:34:07.851Z,8.60
2023-04-04T08:36:41.083Z,6.85
2023-04-04T08:39:09.740Z,8.77
2023-04-04T08:41:44.544Z,5.18
2023-04-04T08:44:18.426Z,5.20
2023-04-04T08:46:57.636Z,5.75
2023-04-04T08:49:29.532Z,8.32
2023-04-04T08:52:01.100Z,7.57
2023-04-04T08:54:32.296Z,8.05
2023-04-04T08:57:01.811Z,6.80
2023-04-04T08:59:30.285Z,6.55
2023-04-04T09:02:07.506Z,7.35
2023-04-04T09:04:36.511Z,5.47
2023-04-04T09:07:08.007Z,5.80
2023-04-04T09:09:38.924Z,8.68
2023-04-04T09:12:08.348Z,5.03
2023-04-04T09:14:39.949Z,3.70
2023-04-04T09:17:10.019Z,6.47
2023-04-04T09:19:38.802Z,8.85
2023-04-04T09:22:10.507Z,8.15
2023-04-04T09:24:40.725Z,7.63
2023-04-04T09:27:10.906Z,7.43
2023-04-04T09:29:40.499Z,8.50
2023-04-04T09:32:16.177Z,6.28
2023-04-04T09:34:45.524Z,6.13
2023-04-04T09:37:18.232Z,10.50
2023-04-04T09:39:47.118Z,7.43
2023-04-04T09:42:19.426Z,7.78
2023-04-04T09:44:47.901Z,6.15
2023-04-04T09:50:00.114Z,12.13
2023-04-04T09:52:33.922Z,6.32
2023-04-04T09:55:04.257Z,8.23
2023-04-04T09:57:34.929Z,10.73
2023-04-04T10:00:07.120Z,6.03
2023-04-04T10:02:36.228Z,7.30
2023-04-04T10:05:06.896Z,10.48
2023-04-04T10:07:40.348Z,5.95
2023-04-04T10:10:10.477Z,8.55
2023-04-04T10:12:39.169Z,8.02
2023-04-04T10:15:09.888Z,9.98
2023-04-04T10:17:41.634Z,5.32
2023-04-04T10:20:12.087Z,6.63
2023-04-04T10:22:43.647Z,9.95
2023-04-04T10:25:13.118Z,9.30
2023-04-04T10:27:41.563Z,8.98
2023-04-04T10:30:11.639Z,7.63
2023-04-04T10:32:51.008Z,6.15
2023-04-04T10:35:22.575Z,7.82
2023-04-04T10:37:59.862Z,6.22
2023-04-04T10:40:34.673Z,5.65
2023-04-04T10:43:05.413Z,7.55
2023-04-04T10:45:34.512Z,6.93
2023-04-04T10:48:05.904Z,6.18
2023-04-04T10:50:37.350Z,8.20
2023-04-04T10:53:08.957Z,5.95
2023-04-04T10:55:39.148Z,6.55
2023-04-04T10:58:08.953Z,8.15
2023-04-04T11:00:52.407Z,7.82
2023-04-04T11:03:20.947Z,7.55
2023-04-04T11:05:51.593Z,11.35
2023-04-04T11:08:25.453Z,6.20
2023-04-04T11:10:55.365Z,7.22
2023-04-04T11:13:29.441Z,6.35
2023-04-04T11:16:00.413Z,7.55
2023-04-04T11:18:49.935Z,8.70
2023-04-04T11:21:20.090Z,7.15
2023-04-04T11:24:18.347Z,9.18
2023-04-04T11:26:47.570Z,9.65
2023-04-04T11:29:51.091Z,8.15
2023-04-04T11:32:50.227Z,10.55
2023-04-04T11:35:26.504Z,8.07
2023-04-04T11:38:03.064Z,9.20
2023-04-04T11:40:43.979Z,8.02
2023-04-04T11:43:13.494Z,10.52
2023-04-04T11:45:46.111Z,10.18
2023-04-04T11:48:17.299Z,8.05
2023-04-04T11:50:53.248Z,7.15
2023-04-04T11:53:22.891Z,9.10
2023-04-04T11:55:53.099Z,10.70
2023-04-04T11:58:21.543Z,10.27
2023-04-04T12:00:50.788Z,7.93
2023-04-04T12:03:19.370Z,8.57
2023-04-04T12:05:48.894Z,8.18
2023-04-04T12:08:18.208Z,8.77
2023-04-04T12:10:46.761Z,7.82
2023-04-04T12:13:16.838Z,8.48
2023-04-04T12:15:45.504Z,7.47
2023-04-04T12:18:23.441Z,8.73
2023-04-04T12:20:53.634Z,9.88
2023-04-04T12:23:23.944Z,9.27
2023-04-04T12:25:55.062Z,8.43
2023-04-04T12:28:27.073Z,8.00
2023-04-04T12:30:56.750Z,8.00
2023-04-04T12:33:25.477Z,7.07
2023-04-04T12:35:54.891Z,9.52
2023-04-04T12:38:23.580Z,8.23
2023-04-04T12:40:53.626Z,10.50
2023-04-04T12:43:22.150Z,10.60
2023-04-04T12:45:55.391Z,7.95
2023-04-04T12:48:28.946Z,10.18
2023-04-04T12:50:58.820Z,9.05
2023-04-04T12:53:30.456Z,9.45
2023-04-04T12:56:04.558Z,9.38
2023-04-04T12:58:35.973Z,9.77
2023-04-04T13:01:08.429Z,7.07
2023-04-04T13:03:38.885Z,9.45
2023-04-04T13:06:13.928Z,6.93
2023-04-04T13:08:52.119Z,8.70
2023-04-04T13:11:20.915Z,10.30
2023-04-04T13:13:49.649Z,9.85
2023-04-04T13:16:34.028Z,8.30
2023-04-04T13:19:02.860Z,8.18
2023-04-04T13:21:31.866Z,9.73
2023-04-04T13:24:00.254Z,8.43
2023-04-04T13:26:29.052Z,10.15
2023-04-04T13:28:57.303Z,13.82
2023-04-04T13:31:25.648Z,9.02
2023-04-04T13:33:55.350Z,8.85
2023-04-04T13:36:23.695Z,10.20
2023-04-04T13:38:52.261Z,10.95
2023-04-04T13:41:20.597Z,8.45
2023-04-04T13:43:48.864Z,8.55
2023-04-04T13:46:17.291Z,9.65
2023-04-04T13:48:45.536Z,11.30
2023-04-04T13:51:15.185Z,9.45
2023-04-04T13:53:45.106Z,9.82
2023-04-04T13:56:18.501Z,6.93
2023-04-04T13:58:47.384Z,7.47
2023-04-04T14:01:15.951Z,7.45
2023-04-04T14:03:44.436Z,8.85
2023-04-04T14:06:14.143Z,7.25
2023-04-04T14:08:42.588Z,11.13
2023-04-04T14:11:10.895Z,8.80
2023-04-04T14:13:39.209Z,9.77
2023-04-04T14:16:09.252Z,10.38
2023-04-04T14:18:37.896Z,7.47
2023-04-04T14:21:07.269Z,11.98
2023-04-04T14:23:37.459Z,8.15
2023-04-04T14:26:06.492Z,8.63
2023-04-04T14:28:35.025Z,8.55
2023-04-04T14:31:03.590Z,7.78
2023-04-04T14:33:32.049Z,8.60
2023-04-04T14:36:00.951Z,9.43
2023-04-04T14:38:29.237Z,7.68
2023-04-04T14:41:00.045Z,7.43
2023-04-04T14:43:28.367Z,8.88
2023-04-04T14:45:56.687Z,8.30
2023-04-04T14:48:25.158Z,7.75
2023-04-04T14:50:53.901Z,9.10
2023-04-04T14:53:22.864Z,9.85
2023-04-04T14:55:52.622Z,9.52
2023-04-04T14:58:22.366Z,8.93
2023-04-04T15:00:50.810Z,10.20
2023-04-04T15:03:19.225Z,9.25
2023-04-04T15:05:47.498Z,8.35
2023-04-04T15:08:17.848Z,8.70
2023-04-04T15:10:46.283Z,9.50
2023-04-04T15:13:18.237Z,12.35
2023-04-04T15:15:48.129Z,12.93
2023-04-04T15:18:17.022Z,9.05
2023-04-04T15:20:45.646Z,9.82
2023-04-04T15:23:14.594Z,9.05
2023-04-04T15:25:43.039Z,8.57
2023-04-04T15:28:11.656Z,9.45
2023-04-04T15:30:41.034Z,9.30
2023-04-04T15:33:11.076Z,9.75
2023-04-04T15:35:39.342Z,10.32
2023-04-04T15:38:07.848Z,9.38
2023-04-04T15:40:36.229Z,12.40
2023-04-04T15:43:04.534Z,11.60
2023-04-04T15:45:33.128Z,8.88
2023-04-04T15:48:01.517Z,12.23
2023-04-04T15:50:31.345Z,8.57
2023-04-04T15:52:59.707Z,7.97
2023-04-04T15:55:29.131Z,9.55
2023-04-04T15:57:57.434Z,13.35
2023-04-04T16:00:29.004Z,9.48
2023-04-04T16:03:01.685Z,8.48
2023-04-04T16:05:34.378Z,11.20
2023-04-04T16:08:02.713Z,9.93
2023-04-04T16:10:32.863Z,10.00
2023-04-04T16:13:01.260Z,9.07
2023-04-04T16:15:29.851Z,9.07
2023-04-04T16:17:59.785Z,8.18
2023-04-04T16:20:28.895Z,10.63
2023-04-04T16:22:58.683Z,12.05
2023-04-04T16:25:31.527Z,9.73
2023-04-04T16:27:59.962Z,10.57
2023-04-04T16:30:29.058Z,7.78
2023-04-04T16:32:57.605Z,9.50
2023-04-04T16:35:29.148Z,10.25
2023-04-04T16:37:59.234Z,11.18
2023-04-04T16:40:27.670Z,10.52
2023-04-04T16:42:56.562Z,9.90
2023-04-04T16:45:25.135Z,12.60
2023-04-04T16:47:53.679Z,8.65
2023-04-04T16:50:22.313Z,10.38
2023-04-04T16:52:50.899Z,8.18
2023-04-04T16:55:21.761Z,11.02
2023-04-04T16:57:50.124Z,9.40
2023-04-04T17:00:19.263Z,11.25
2023-04-04T17:02:47.682Z,8.93
2023-04-04T17:05:16.222Z,8.75
2023-04-04T17:07:44.946Z,9.90
2023-04-04T17:10:14.691Z,9.02
2023-04-04T17:12:44.586Z,8.75
2023-04-04T17:15:14.945Z,8.38
2023-04-04T17:17:44.653Z,11.10
2023-04-04T17:20:17.599Z,12.85
2023-04-04T17:22:47.310Z,8.85
2023-04-04T17:25:15.676Z,14.73
2023-04-04T17:27:45.421Z,13.18
2023-04-04T17:30:15.169Z,9.60
2023-04-04T17:32:43.591Z,11.68
2023-04-04T17:35:12.175Z,12.00
2023-04-04T17:37:40.496Z,13.23
2023-04-04T17:40:10.225Z,8.73
2023-04-04T17:42:38.743Z,9.43
2023-04-04T17:45:12.227Z,12.80
2023-04-04T17:47:40.675Z,11.38
2023-04-04T17:50:10.191Z,10.23
2023-04-04T17:52:38.762Z,8.98
2023-04-04T17:55:09.241Z,11.32
2023-04-04T17:57:37.514Z,11.02
2023-04-04T18:00:09.520Z,10.45
2023-04-04T18:02:37.853Z,9.65
2023-04-04T18:05:06.974Z,9.23
2023-04-04T18:07:35.785Z,12.75
2023-04-04T18:10:04.110Z,12.70
2023-04-04T18:12:34.550Z,13.82
2023-04-04T18:15:04.822Z,10.50
2023-04-04T18:17:34.561Z,13.93
2023-04-04T18:20:04.315Z,12.95
2023-04-04T18:22:34.010Z,12.40
2023-04-04T18:25:02.475Z,12.35
2023-04-04T18:27:31.062Z,15.65
2023-04-04T18:29:59.633Z,11.60
2023-04-04T18:32:29.147Z,12.88
2023-04-04T18:34:58.866Z,8.98
2023-04-04T18:37:27.455Z,11.98
2023-04-04T18:39:55.834Z,11.52
2023-04-04T18:42:25.043Z,11.95
2023-04-04T18:44:54.034Z,12.05
2023-04-04T18:47:22.959Z,12.75
2023-04-04T18:49:51.375Z,12.73
2023-04-04T18:52:21.295Z,13.02
2023-04-04T18:54:49.951Z,11.88
2023-04-04T18:57:19.767Z,12.02
2023-04-04T18:59:48.252Z,10.68
2023-04-04T19:02:17.028Z,14.55
2023-04-04T19:04:48.200Z,14.57
2023-04-04T19:07:22.065Z,13.10
2023-04-04T19:09:51.838Z,15.05
2023-04-04T19:12:20.405Z,11.38
2023-04-04T19:14:48.856Z,13.43
2023-04-04T19:17:18.231Z,11.05
2023-04-04T19:19:47.393Z,13.27
2023-04-04T19:22:15.804Z,14.02
2023-04-04T19:24:45.581Z,12.65
2023-04-04T19:27:13.868Z,14.18
2023-04-04T19:29:42.931Z,10.65
2023-04-04T19:32:15.005Z,14.00
2023-04-04T19:34:44.716Z,10.52
2023-04-04T19:37:17.582Z,13.75
2023-04-04T19:39:48.003Z,11.02
2023-04-04T19:42:16.450Z,12.52
2023-04-04T19:44:44.722Z,12.80
2023-04-04T19:47:14.598Z,14.07
2023-04-04T19:49:42.863Z,11.82
2023-04-04T19:52:14.303Z,14.52
2023-04-04T19:54:46.795Z,12.55
2023-04-04T19:57:20.243Z,17.30
2023-04-04T20:00:01.709Z,14.13
2023-04-04T20:02:51.177Z,13.57
2023-04-04T20:05:57.329Z,13.80
2023-04-04T20:08:27.406Z,13.82
2023-04-04T20:10:58.158Z,15.23
2023-04-04T20:13:26.504Z,15.98
2023-04-04T20:16:04.823Z,15.25
2023-04-04T20:18:35.399Z,14.55
2023-04-04T20:21:19.181Z,13.93
2023-04-04T20:23:53.151Z,13.40
2023-04-04T20:26:52.476Z,15.20
2023-04-04T20:29:22.839Z,11.80
2023-04-04T20:31:54.855Z,16.98
2023-04-04T20:34:46.474Z,15.20
2023-04-04T20:37:20.928Z,14.98
2023-04-04T20:39:53.583Z,14.40
2023-04-04T20:42:40.061Z,17.13
2023-04-04T20:45:34.799Z,14.23
2023-04-04T20:48:06.810Z,16.77
2023-04-04T20:50:47.570Z,16.35
2023-04-04T20:53:20.322Z,16.63
2023-04-04T20:55:50.646Z,16.33
2023-04-04T20:58:29.197Z,13.88
2023-04-04T21:00:59.793Z,14.80
2023-04-04T21:03:34.432Z,16.27
2023-04-04T21:06:20.632Z,20.38
2023-04-04T21:08:50.836Z,14.25
2023-04-04T21:11:28.869Z,13.18
2023-04-04T21:13:58.939Z,14.73
2023-04-04T21:16:29.484Z,21.17
2023-04-04T21:19:01.511Z,16.60
2023-04-04T21:21:30.776Z,17.40
2023-04-04T21:24:00.929Z,19.00
2023-04-04T21:26:32.938Z,15.20
2023-04-04T21:29:05.089Z,17.92
2023-04-04T21:31:38.722Z,15.15
2023-04-04T21:34:13.898Z,16.63
2023-04-04T21:36:42.608Z,15.82
2023-04-04T21:39:14.103Z,17.92
2023-04-04T21:41:44.760Z,16.50
2023-04-04T21:44:15.420Z,19.55
2023-04-04T21:46:44.298Z,18.27
2023-04-04T21:49:13.374Z,15.45
2023-04-04T21:51:42.410Z,15.70
2023-04-04T21:54:11.201Z,19.50
2023-04-04T21:56:39.792Z,16.67
2023-04-04T21:59:10.405Z,17.58
2023-04-04T22:01:40.783Z,22.80
2023-04-04T22:04:09.402Z,22.83
2023-04-04T22:06:37.685Z,16.38
2023-04-04T22:09:06.913Z,17.30
2023-04-04T22:11:38.952Z,14.75
2023-04-04T22:14:08.117Z,19.98
2023-04-04T22:16:39.799Z,19.00
2023-04-04T22:19:10.986Z,17.95
2023-04-04T22:21:46.819Z,16.67
2023-04-04T22:24:17.688Z,16.05
2023-04-04T22:26:46.838Z,19.83
2023-04-04T22:29:16.072Z,20.45
2023-04-04T22:31:44.597Z,17.67
2023-04-04T22:34:15.504Z,21.27
2023-04-04T22:36:44.093Z,18.80
2023-04-04T22:39:16.124Z,17.45
2023-04-04T22:41:45.635Z,16.85
2023-04-04T22:44:14.483Z,22.08
2023-04-04T22:46:43.002Z,20.80
2023-04-04T22:49:11.238Z,18.65
2023-04-04T22:51:45.125Z,21.75
2023-04-04T22:54:15.453Z,23.33
2023-04-04T22:56:44.051Z,21.38
2023-04-04T22:59:12.925Z,25.65
2023-04-04T23:01:42.661Z,27.38
2023-04-04T23:04:11.276Z,25.30
2023-04-04T23:06:41.260Z,22.75
2023-04-04T23:09:09.663Z,26.02
2023-04-04T23:11:38.931Z,27.70
2023-04-04T23:14:09.614Z,22.40
2023-04-04T23:16:38.634Z,24.88
2023-04-04T23:19:07.649Z,19.40
2023-04-04T23:21:36.626Z,18.23
2023-04-04T23:24:08.030Z,20.30
2023-04-04T23:26:36.382Z,18.80
2023-04-04T23:29:05.782Z,22.17
2023-04-04T23:31:34.192Z,22.45
2023-04-04T23:34:02.605Z,20.63
2023-04-04T23:36:31.254Z,20.60
2023-04-04T23:38:59.817Z,18.05
2023-04-04T23:41:29.436Z,21.90
2023-04-04T23:43:57.677Z,17.98
2023-04-04T23:46:26.369Z,17.73
2023-04-04T23:48:54.627Z,20.05
2023-04-04T23:51:23.469Z,20.25
2023-04-04T23:53:51.904Z,21.67
2023-04-04T23:56:20.186Z,17.75
2023-04-04T23:58:50.117Z,20.52
